sensor_id;sensor_type;location;lat;lon;timestamp;P1;durP1;ratioP1;P2;durP2;ratioP2
20287;SDS011;10303;51.960;8.372;2023-05-16T00:00:52;4.13;;;3.00;;
20287;SDS011;10303;51.960;8.372;2023-05-16T00:03:18;6.87;;;3.67;;
20287;SDS011;10303;51.960;8.372;2023-05-16T00:05:45;4.87;;;3.17;;
20287;SDS011;10303;51.960;8.372;2023-05-16T00:08:12;4.20;;;3.80;;
20287;SDS011;10303;51.960;8.372;2023-05-16T00:10:38;4.07;;;3.60;;
20287;SDS011;10303;51.960;8.372;2023-05-16T00:13:04;3.33;;;3.03;;
20287;SDS011;10303;51.960;8.372;2023-05-16T00:15:31;3.87;;;3.53;;
20287;SDS011;10303;51.960;8.372;2023-05-16T00:17:57;4.50;;;3.63;;
20287;SDS011;10303;51.960;8.372;2023-05-16T00:20:24;4.80;;;3.73;;
20287;SDS011;10303;51.960;8.372;2023-05-16T00:22:52;4.87;;;3.43;;
20287;SDS011;10303;51.960;8.372;2023-05-16T00:25:19;3.93;;;3.13;;
20287;SDS011;10303;51.960;8.372;2023-05-16T00:27:45;4.23;;;2.60;;
20287;SDS011;10303;51.960;8.372;2023-05-16T00:30:11;3.97;;;2.40;;
20287;SDS011;10303;51.960;8.372;2023-05-16T00:32:37;6.47;;;3.30;;
20287;SDS011;10303;51.960;8.372;2023-05-16T00:35:03;2.43;;;2.23;;
20287;SDS011;10303;51.960;8.372;2023-05-16T00:37:31;2.70;;;2.50;;
20287;SDS011;10303;51.960;8.372;2023-05-16T00:39:57;3.17;;;2.87;;
20287;SDS011;10303;51.960;8.372;2023-05-16T00:42:23;2.70;;;2.50;;
20287;SDS011;10303;51.960;8.372;2023-05-16T00:44:48;2.40;;;2.20;;
20287;SDS011;10303;51.960;8.372;2023-05-16T00:47:15;1.97;;;1.77;;
20287;SDS011;10303;51.960;8.372;2023-05-16T00:49:41;1.90;;;1.80;;
20287;SDS011;10303;51.960;8.372;2023-05-16T00:52:07;2.30;;;2.10;;
20287;SDS011;10303;51.960;8.372;2023-05-16T00:54:33;3.40;;;1.90;;
20287;SDS011;10303;51.960;8.372;2023-05-16T00:57:00;2.20;;;1.87;;
20287;SDS011;10303;51.960;8.372;2023-05-16T00:59:26;1.70;;;1.60;;
20287;SDS011;10303;51.960;8.372;2023-05-16T01:01:52;1.40;;;1.30;;
20287;SDS011;10303;51.960;8.372;2023-05-16T01:04:19;5.13;;;2.07;;
20287;SDS011;10303;51.960;8.372;2023-05-16T01:06:45;2.03;;;1.83;;
20287;SDS011;10303;51.960;8.372;2023-05-16T01:09:11;2.70;;;1.53;;
20287;SDS011;10303;51.960;8.372;2023-05-16T01:17:53;2.20;;;1.40;;
20287;SDS011;10303;51.960;8.372;2023-05-16T01:28:47;1.67;;;1.57;;
20287;SDS011;10303;51.960;8.372;2023-05-16T01:31:17;1.40;;;1.30;;
20287;SDS011;10303;51.960;8.372;2023-05-16T01:33:44;1.70;;;1.13;;
20287;SDS011;10303;51.960;8.372;2023-05-16T01:39:21;1.30;;;1.20;;
20287;SDS011;10303;51.960;8.372;2023-05-16T01:42:03;2.23;;;1.20;;
20287;SDS011;10303;51.960;8.372;2023-05-16T01:47:51;1.50;;;1.40;;
20287;SDS011;10303;51.960;8.372;2023-05-16T01:50:30;1.13;;;1.03;;
20287;SDS011;10303;51.960;8.372;2023-05-16T01:53:05;1.77;;;1.67;;
20287;SDS011;10303;51.960;8.372;2023-05-16T01:58:13;1.30;;;1.20;;
20287;SDS011;10303;51.960;8.372;2023-05-16T02:00:45;2.23;;;1.77;;
20287;SDS011;10303;51.960;8.372;2023-05-16T02:03:11;1.37;;;1.27;;
20287;SDS011;10303;51.960;8.372;2023-05-16T02:05:38;1.07;;;0.97;;
20287;SDS011;10303;51.960;8.372;2023-05-16T02:08:04;1.20;;;1.00;;
20287;SDS011;10303;51.960;8.372;2023-05-16T02:10:30;1.63;;;1.03;;
20287;SDS011;10303;51.960;8.372;2023-05-16T02:12:58;0.70;;;0.70;;
20287;SDS011;10303;51.960;8.372;2023-05-16T02:15:24;3.00;;;1.10;;
20287;SDS011;10303;51.960;8.372;2023-05-16T02:17:50;0.60;;;0.57;;
20287;SDS011;10303;51.960;8.372;2023-05-16T02:20:16;0.90;;;0.80;;
20287;SDS011;10303;51.960;8.372;2023-05-16T02:22:42;0.80;;;0.60;;
20287;SDS011;10303;51.960;8.372;2023-05-16T02:25:09;7.07;;;0.83;;
20287;SDS011;10303;51.960;8.372;2023-05-16T02:27:35;1.47;;;0.80;;
20287;SDS011;10303;51.960;8.372;2023-05-16T02:30:01;1.40;;;0.70;;
20287;SDS011;10303;51.960;8.372;2023-05-16T02:32:30;4.67;;;1.10;;
20287;SDS011;10303;51.960;8.372;2023-05-16T02:34:58;2.77;;;0.67;;
20287;SDS011;10303;51.960;8.372;2023-05-16T02:37:24;1.60;;;0.87;;
20287;SDS011;10303;51.960;8.372;2023-05-16T02:39:50;0.30;;;0.30;;
20287;SDS011;10303;51.960;8.372;2023-05-16T02:42:16;0.80;;;0.73;;
20287;SDS011;10303;51.960;8.372;2023-05-16T02:44:43;0.60;;;0.60;;
20287;SDS011;10303;51.960;8.372;2023-05-16T02:47:09;0.77;;;0.63;;
20287;SDS011;10303;51.960;8.372;2023-05-16T02:49:35;1.37;;;1.00;;
20287;SDS011;10303;51.960;8.372;2023-05-16T02:52:01;2.23;;;0.67;;
20287;SDS011;10303;51.960;8.372;2023-05-16T02:54:27;0.87;;;0.87;;
20287;SDS011;10303;51.960;8.372;2023-05-16T02:56:53;0.63;;;0.60;;
20287;SDS011;10303;51.960;8.372;2023-05-16T02:59:19;5.40;;;1.13;;
20287;SDS011;10303;51.960;8.372;2023-05-16T03:01:45;1.20;;;1.10;;
20287;SDS011;10303;51.960;8.372;2023-05-16T03:04:11;4.17;;;1.07;;
20287;SDS011;10303;51.960;8.372;2023-05-16T03:06:37;1.53;;;0.70;;
20287;SDS011;10303;51.960;8.372;2023-05-16T03:09:03;0.70;;;0.70;;
20287;SDS011;10303;51.960;8.372;2023-05-16T03:11:29;0.80;;;0.63;;
20287;SDS011;10303;51.960;8.372;2023-05-16T03:13:54;1.03;;;0.70;;
20287;SDS011;10303;51.960;8.372;2023-05-16T03:16:22;0.80;;;0.80;;
20287;SDS011;10303;51.960;8.372;2023-05-16T03:18:50;1.33;;;0.67;;
20287;SDS011;10303;51.960;8.372;2023-05-16T03:21:16;0.90;;;0.60;;
20287;SDS011;10303;51.960;8.372;2023-05-16T03:23:43;6.47;;;1.30;;
20287;SDS011;10303;51.960;8.372;2023-05-16T03:26:09;1.17;;;1.00;;
20287;SDS011;10303;51.960;8.372;2023-05-16T03:28:35;2.00;;;0.97;;
20287;SDS011;10303;51.960;8.372;2023-05-16T03:31:01;1.57;;;1.30;;
20287;SDS011;10303;51.960;8.372;2023-05-16T03:33:27;3.63;;;0.90;;
20287;SDS011;10303;51.960;8.372;2023-05-16T03:35:53;0.70;;;0.70;;
20287;SDS011;10303;51.960;8.372;2023-05-16T03:38:19;4.03;;;0.77;;
20287;SDS011;10303;51.960;8.372;2023-05-16T03:40:46;3.97;;;0.63;;
20287;SDS011;10303;51.960;8.372;2023-05-16T03:43:12;2.73;;;1.30;;
20287;SDS011;10303;51.960;8.372;2023-05-16T03:45:38;0.97;;;0.60;;
20287;SDS011;10303;51.960;8.372;2023-05-16T03:48:04;1.33;;;0.80;;
20287;SDS011;10303;51.960;8.372;2023-05-16T03:50:30;2.97;;;0.93;;
20287;SDS011;10303;51.960;8.372;2023-05-16T03:52:56;3.07;;;0.80;;
20287;SDS011;10303;51.960;8.372;2023-05-16T03:55:23;3.30;;;1.50;;
20287;SDS011;10303;51.960;8.372;2023-05-16T03:57:49;2.73;;;0.93;;
20287;SDS011;10303;51.960;8.372;2023-05-16T04:00:16;1.50;;;0.60;;
20287;SDS011;10303;51.960;8.372;2023-05-16T04:02:42;2.00;;;0.70;;
20287;SDS011;10303;51.960;8.372;2023-05-16T04:05:09;3.97;;;0.90;;
20287;SDS011;10303;51.960;8.372;2023-05-16T04:07:38;5.70;;;1.20;;
20287;SDS011;10303;51.960;8.372;2023-05-16T04:10:05;4.43;;;1.43;;
20287;SDS011;10303;51.960;8.372;2023-05-16T04:12:32;6.07;;;1.00;;
20287;SDS011;10303;51.960;8.372;2023-05-16T04:14:58;4.87;;;1.10;;
20287;SDS011;10303;51.960;8.372;2023-05-16T04:17:24;1.17;;;1.00;;
20287;SDS011;10303;51.960;8.372;2023-05-16T04:19:50;5.90;;;1.23;;
20287;SDS011;10303;51.960;8.372;2023-05-16T04:22:16;5.83;;;1.30;;
20287;SDS011;10303;51.960;8.372;2023-05-16T04:24:42;1.30;;;0.83;;
20287;SDS011;10303;51.960;8.372;2023-05-16T04:27:08;4.03;;;0.93;;
20287;SDS011;10303;51.960;8.372;2023-05-16T04:29:34;2.00;;;0.73;;
20287;SDS011;10303;51.960;8.372;2023-05-16T04:32:00;1.30;;;0.60;;
20287;SDS011;10303;51.960;8.372;2023-05-16T04:34:27;2.17;;;0.90;;
20287;SDS011;10303;51.960;8.372;2023-05-16T04:36:53;4.37;;;1.30;;
20287;SDS011;10303;51.960;8.372;2023-05-16T04:39:20;2.40;;;0.90;;
20287;SDS011;10303;51.960;8.372;2023-05-16T04:41:46;1.07;;;0.60;;
20287;SDS011;10303;51.960;8.372;2023-05-16T04:44:12;3.60;;;0.80;;
20287;SDS011;10303;51.960;8.372;2023-05-16T04:46:38;1.53;;;0.60;;
20287;SDS011;10303;51.960;8.372;2023-05-16T04:49:04;5.47;;;0.80;;
20287;SDS011;10303;51.960;8.372;2023-05-16T04:51:30;6.87;;;1.27;;
20287;SDS011;10303;51.960;8.372;2023-05-16T04:53:58;3.37;;;0.80;;
20287;SDS011;10303;51.960;8.372;2023-05-16T04:56:24;3.43;;;1.37;;
20287;SDS011;10303;51.960;8.372;2023-05-16T04:58:51;3.97;;;0.70;;
20287;SDS011;10303;51.960;8.372;2023-05-16T05:01:18;2.47;;;0.50;;
20287;SDS011;10303;51.960;8.372;2023-05-16T05:03:45;2.40;;;0.70;;
20287;SDS011;10303;51.960;8.372;2023-05-16T05:06:11;1.80;;;0.60;;
20287;SDS011;10303;51.960;8.372;2023-05-16T05:08:37;2.37;;;0.53;;
20287;SDS011;10303;51.960;8.372;2023-05-16T05:11:03;5.87;;;1.40;;
20287;SDS011;10303;51.960;8.372;2023-05-16T05:13:29;1.57;;;0.87;;
20287;SDS011;10303;51.960;8.372;2023-05-16T05:15:55;6.43;;;1.37;;
20287;SDS011;10303;51.960;8.372;2023-05-16T05:18:21;4.70;;;0.80;;
20287;SDS011;10303;51.960;8.372;2023-05-16T05:20:48;3.60;;;1.03;;
20287;SDS011;10303;51.960;8.372;2023-05-16T05:23:14;5.03;;;0.80;;
20287;SDS011;10303;51.960;8.372;2023-05-16T05:25:40;4.30;;;0.90;;
20287;SDS011;10303;51.960;8.372;2023-05-16T05:28:06;2.53;;;0.50;;
20287;SDS011;10303;51.960;8.372;2023-05-16T05:30:32;3.13;;;0.70;;
20287;SDS011;10303;51.960;8.372;2023-05-16T05:32:58;2.97;;;1.00;;
20287;SDS011;10303;51.960;8.372;2023-05-16T05:35:24;1.53;;;0.90;;
20287;SDS011;10303;51.960;8.372;2023-05-16T05:37:50;2.53;;;1.30;;
20287;SDS011;10303;51.960;8.372;2023-05-16T05:40:16;1.93;;;0.93;;
20287;SDS011;10303;51.960;8.372;2023-05-16T05:42:42;2.53;;;1.13;;
20287;SDS011;10303;51.960;8.372;2023-05-16T05:45:09;3.37;;;0.70;;
20287;SDS011;10303;51.960;8.372;2023-05-16T05:47:35;4.03;;;1.27;;
20287;SDS011;10303;51.960;8.372;2023-05-16T05:50:02;4.70;;;0.77;;
20287;SDS011;10303;51.960;8.372;2023-05-16T05:52:29;2.17;;;1.30;;
20287;SDS011;10303;51.960;8.372;2023-05-16T05:54:55;3.07;;;1.23;;
20287;SDS011;10303;51.960;8.372;2023-05-16T05:57:23;1.07;;;0.80;;
20287;SDS011;10303;51.960;8.372;2023-05-16T05:59:50;4.07;;;0.83;;
20287;SDS011;10303;51.960;8.372;2023-05-16T06:02:16;3.00;;;0.70;;
20287;SDS011;10303;51.960;8.372;2023-05-16T06:04:42;3.50;;;0.90;;
20287;SDS011;10303;51.960;8.372;2023-05-16T06:07:09;1.73;;;0.97;;
20287;SDS011;10303;51.960;8.372;2023-05-16T06:09:35;4.40;;;0.97;;
20287;SDS011;10303;51.960;8.372;2023-05-16T06:12:01;5.20;;;1.00;;
20287;SDS011;10303;51.960;8.372;2023-05-16T06:14:28;4.50;;;1.90;;
20287;SDS011;10303;51.960;8.372;2023-05-16T06:16:54;6.63;;;1.40;;
20287;SDS011;10303;51.960;8.372;2023-05-16T06:19:20;6.57;;;0.90;;
20287;SDS011;10303;51.960;8.372;2023-05-16T06:21:47;2.87;;;0.97;;
20287;SDS011;10303;51.960;8.372;2023-05-16T06:24:14;12.37;;;0.77;;
20287;SDS011;10303;51.960;8.372;2023-05-16T06:26:40;6.20;;;0.90;;
20287;SDS011;10303;51.960;8.372;2023-05-16T06:29:05;3.13;;;0.80;;
20287;SDS011;10303;51.960;8.372;2023-05-16T06:31:31;3.87;;;0.90;;
20287;SDS011;10303;51.960;8.372;2023-05-16T06:33:58;4.00;;;1.10;;
20287;SDS011;10303;51.960;8.372;2023-05-16T06:36:24;8.53;;;1.40;;
20287;SDS011;10303;51.960;8.372;2023-05-16T06:38:49;2.83;;;1.17;;
20287;SDS011;10303;51.960;8.372;2023-05-16T06:41:15;7.47;;;1.17;;
20287;SDS011;10303;51.960;8.372;2023-05-16T06:43:41;2.97;;;1.10;;
20287;SDS011;10303;51.960;8.372;2023-05-16T06:46:07;5.67;;;1.20;;
20287;SDS011;10303;51.960;8.372;2023-05-16T06:48:33;3.90;;;0.70;;
20287;SDS011;10303;51.960;8.372;2023-05-16T06:50:59;3.23;;;0.90;;
20287;SDS011;10303;51.960;8.372;2023-05-16T06:53:25;3.87;;;1.83;;
20287;SDS011;10303;51.960;8.372;2023-05-16T06:55:52;2.50;;;0.90;;
20287;SDS011;10303;51.960;8.372;2023-05-16T06:58:18;5.60;;;1.10;;
20287;SDS011;10303;51.960;8.372;2023-05-16T07:00:44;5.40;;;0.83;;
20287;SDS011;10303;51.960;8.372;2023-05-16T07:03:11;2.23;;;1.10;;
20287;SDS011;10303;51.960;8.372;2023-05-16T07:05:37;1.80;;;0.80;;
20287;SDS011;10303;51.960;8.372;2023-05-16T07:08:03;4.40;;;1.33;;
20287;SDS011;10303;51.960;8.372;2023-05-16T07:10:29;0.80;;;0.63;;
20287;SDS011;10303;51.960;8.372;2023-05-16T07:12:55;4.13;;;1.20;;
20287;SDS011;10303;51.960;8.372;2023-05-16T07:15:22;3.13;;;0.90;;
20287;SDS011;10303;51.960;8.372;2023-05-16T07:17:48;6.53;;;1.43;;
20287;SDS011;10303;51.960;8.372;2023-05-16T07:20:15;1.37;;;0.63;;
20287;SDS011;10303;51.960;8.372;2023-05-16T07:22:40;2.50;;;0.83;;
20287;SDS011;10303;51.960;8.372;2023-05-16T07:25:06;6.90;;;0.80;;
20287;SDS011;10303;51.960;8.372;2023-05-16T07:27:37;3.43;;;0.70;;
20287;SDS011;10303;51.960;8.372;2023-05-16T07:30:06;2.27;;;0.60;;
20287;SDS011;10303;51.960;8.372;2023-05-16T07:32:34;1.13;;;0.63;;
20287;SDS011;10303;51.960;8.372;2023-05-16T07:35:00;4.70;;;0.70;;
20287;SDS011;10303;51.960;8.372;2023-05-16T07:37:26;5.30;;;1.17;;
20287;SDS011;10303;51.960;8.372;2023-05-16T07:39:52;5.67;;;0.87;;
20287;SDS011;10303;51.960;8.372;2023-05-16T07:42:18;6.27;;;1.67;;
20287;SDS011;10303;51.960;8.372;2023-05-16T07:44:44;1.17;;;0.50;;
20287;SDS011;10303;51.960;8.372;2023-05-16T07:47:10;0.70;;;0.50;;
20287;SDS011;10303;51.960;8.372;2023-05-16T07:49:36;6.13;;;1.70;;
20287;SDS011;10303;51.960;8.372;2023-05-16T07:52:02;5.23;;;0.70;;
20287;SDS011;10303;51.960;8.372;2023-05-16T07:54:29;3.60;;;0.90;;
20287;SDS011;10303;51.960;8.372;2023-05-16T07:56:57;2.10;;;0.73;;
20287;SDS011;10303;51.960;8.372;2023-05-16T07:59:23;3.97;;;1.00;;
20287;SDS011;10303;51.960;8.372;2023-05-16T08:01:49;3.60;;;0.80;;
20287;SDS011;10303;51.960;8.372;2023-05-16T08:04:16;1.50;;;0.73;;
20287;SDS011;10303;51.960;8.372;2023-05-16T08:06:42;6.67;;;0.93;;
20287;SDS011;10303;51.960;8.372;2023-05-16T08:09:07;3.77;;;1.10;;
20287;SDS011;10303;51.960;8.372;2023-05-16T08:11:34;4.00;;;0.80;;
20287;SDS011;10303;51.960;8.372;2023-05-16T08:14:00;2.50;;;0.70;;
20287;SDS011;10303;51.960;8.372;2023-05-16T08:16:26;4.60;;;1.30;;
20287;SDS011;10303;51.960;8.372;2023-05-16T08:18:52;1.83;;;1.20;;
20287;SDS011;10303;51.960;8.372;2023-05-16T08:21:18;2.30;;;0.90;;
20287;SDS011;10303;51.960;8.372;2023-05-16T08:23:44;5.03;;;1.10;;
20287;SDS011;10303;51.960;8.372;2023-05-16T08:26:09;3.50;;;1.20;;
20287;SDS011;10303;51.960;8.372;2023-05-16T08:28:36;4.77;;;1.10;;
20287;SDS011;10303;51.960;8.372;2023-05-16T08:31:01;1.57;;;0.57;;
20287;SDS011;10303;51.960;8.372;2023-05-16T08:33:28;4.27;;;0.67;;
20287;SDS011;10303;51.960;8.372;2023-05-16T08:35:54;1.27;;;0.53;;
20287;SDS011;10303;51.960;8.372;2023-05-16T08:38:19;4.27;;;1.10;;
20287;SDS011;10303;51.960;8.372;2023-05-16T08:40:45;3.93;;;0.90;;
20287;SDS011;10303;51.960;8.372;2023-05-16T08:43:12;0.70;;;0.40;;
20287;SDS011;10303;51.960;8.372;2023-05-16T08:45:39;1.60;;;0.47;;
20287;SDS011;10303;51.960;8.372;2023-05-16T08:48:06;2.00;;;0.70;;
20287;SDS011;10303;51.960;8.372;2023-05-16T08:50:35;2.13;;;0.90;;
20287;SDS011;10303;51.960;8.372;2023-05-16T08:53:06;2.70;;;0.67;;
20287;SDS011;10303;51.960;8.372;2023-05-16T08:55:35;2.33;;;0.87;;
20287;SDS011;10303;51.960;8.372;2023-05-16T08:58:02;1.90;;;0.60;;
20287;SDS011;10303;51.960;8.372;2023-05-16T09:00:29;1.90;;;0.50;;
20287;SDS011;10303;51.960;8.372;2023-05-16T09:02:55;1.33;;;0.77;;
20287;SDS011;10303;51.960;8.372;2023-05-16T09:05:22;2.17;;;0.87;;
20287;SDS011;10303;51.960;8.372;2023-05-16T09:07:49;9.67;;;1.17;;
20287;SDS011;10303;51.960;8.372;2023-05-16T09:10:15;4.57;;;0.90;;
20287;SDS011;10303;51.960;8.372;2023-05-16T09:12:41;4.83;;;0.70;;
20287;SDS011;10303;51.960;8.372;2023-05-16T09:15:08;4.17;;;0.93;;
20287;SDS011;10303;51.960;8.372;2023-05-16T09:17:36;3.17;;;0.87;;
20287;SDS011;10303;51.960;8.372;2023-05-16T09:20:10;3.20;;;0.63;;
20287;SDS011;10303;51.960;8.372;2023-05-16T09:22:54;1.80;;;0.80;;
20287;SDS011;10303;51.960;8.372;2023-05-16T09:25:23;1.50;;;0.60;;
20287;SDS011;10303;51.960;8.372;2023-05-16T09:27:55;2.17;;;0.50;;
20287;SDS011;10303;51.960;8.372;2023-05-16T09:30:27;1.03;;;0.43;;
20287;SDS011;10303;51.960;8.372;2023-05-16T09:32:55;5.57;;;0.60;;
20287;SDS011;10303;51.960;8.372;2023-05-16T09:35:22;2.93;;;0.87;;
20287;SDS011;10303;51.960;8.372;2023-05-16T09:37:48;0.90;;;0.40;;
20287;SDS011;10303;51.960;8.372;2023-05-16T09:40:22;0.50;;;0.50;;
20287;SDS011;10303;51.960;8.372;2023-05-16T09:43:01;3.23;;;1.23;;
20287;SDS011;10303;51.960;8.372;2023-05-16T09:45:30;1.70;;;0.80;;
20287;SDS011;10303;51.960;8.372;2023-05-16T09:48:03;2.50;;;0.63;;
20287;SDS011;10303;51.960;8.372;2023-05-16T09:50:34;3.73;;;1.00;;
20287;SDS011;10303;51.960;8.372;2023-05-16T09:53:02;0.87;;;0.60;;
20287;SDS011;10303;51.960;8.372;2023-05-16T09:55:29;2.00;;;0.63;;
20287;SDS011;10303;51.960;8.372;2023-05-16T09:57:56;2.03;;;0.47;;
20287;SDS011;10303;51.960;8.372;2023-05-16T10:00:29;3.47;;;0.40;;
20287;SDS011;10303;51.960;8.372;2023-05-16T10:02:57;0.40;;;0.40;;
20287;SDS011;10303;51.960;8.372;2023-05-16T10:05:28;0.80;;;0.67;;
20287;SDS011;10303;51.960;8.372;2023-05-16T10:07:55;3.63;;;0.80;;
20287;SDS011;10303;51.960;8.372;2023-05-16T10:10:23;4.27;;;1.10;;
20287;SDS011;10303;51.960;8.372;2023-05-16T10:12:50;3.43;;;0.80;;
20287;SDS011;10303;51.960;8.372;2023-05-16T10:15:22;1.70;;;0.60;;
20287;SDS011;10303;51.960;8.372;2023-05-16T10:17:49;2.73;;;0.50;;
20287;SDS011;10303;51.960;8.372;2023-05-16T10:20:20;2.70;;;0.50;;
20287;SDS011;10303;51.960;8.372;2023-05-16T10:22:47;2.13;;;0.73;;
20287;SDS011;10303;51.960;8.372;2023-05-16T10:25:23;1.10;;;0.60;;
20287;SDS011;10303;51.960;8.372;2023-05-16T10:27:56;0.53;;;0.53;;
20287;SDS011;10303;51.960;8.372;2023-05-16T10:30:23;1.73;;;0.63;;
20287;SDS011;10303;51.960;8.372;2023-05-16T10:32:51;0.97;;;0.50;;
20287;SDS011;10303;51.960;8.372;2023-05-16T10:35:18;2.50;;;0.60;;
20287;SDS011;10303;51.960;8.372;2023-05-16T10:37:45;1.10;;;0.60;;
20287;SDS011;10303;51.960;8.372;2023-05-16T10:40:13;0.50;;;0.50;;
20287;SDS011;10303;51.960;8.372;2023-05-16T10:43:00;1.40;;;0.60;;
20287;SDS011;10303;51.960;8.372;2023-05-16T10:45:28;2.03;;;0.60;;
20287;SDS011;10303;51.960;8.372;2023-05-16T10:47:58;1.17;;;0.37;;
20287;SDS011;10303;51.960;8.372;2023-05-16T10:58:24;2.50;;;0.83;;
20287;SDS011;10303;51.960;8.372;2023-05-16T11:09:07;3.90;;;0.87;;
20287;SDS011;10303;51.960;8.372;2023-05-16T11:14:19;1.70;;;0.73;;
20287;SDS011;10303;51.960;8.372;2023-05-16T11:19:44;1.10;;;0.50;;
20287;SDS011;10303;51.960;8.372;2023-05-16T11:22:32;1.23;;;0.60;;
20287;SDS011;10303;51.960;8.372;2023-05-16T11:25:08;2.87;;;0.93;;
20287;SDS011;10303;51.960;8.372;2023-05-16T11:30:11;1.80;;;0.60;;
20287;SDS011;10303;51.960;8.372;2023-05-16T11:32:40;2.80;;;1.23;;
20287;SDS011;10303;51.960;8.372;2023-05-16T11:35:09;2.23;;;0.53;;
20287;SDS011;10303;51.960;8.372;2023-05-16T11:37:38;0.63;;;0.33;;
20287;SDS011;10303;51.960;8.372;2023-05-16T11:40:05;2.10;;;0.50;;
20287;SDS011;10303;51.960;8.372;2023-05-16T11:42:40;2.47;;;0.73;;
20287;SDS011;10303;51.960;8.372;2023-05-16T11:45:09;2.33;;;0.60;;
20287;SDS011;10303;51.960;8.372;2023-05-16T11:47:40;0.40;;;0.40;;
20287;SDS011;10303;51.960;8.372;2023-05-16T11:50:15;1.17;;;0.70;;
20287;SDS011;10303;51.960;8.372;2023-05-16T11:52:44;0.53;;;0.43;;
20287;SDS011;10303;51.960;8.372;2023-05-16T11:55:22;0.40;;;0.40;;
20287;SDS011;10303;51.960;8.372;2023-05-16T11:57:52;0.67;;;0.40;;
20287;SDS011;10303;51.960;8.372;2023-05-16T12:00:20;3.40;;;0.80;;
20287;SDS011;10303;51.960;8.372;2023-05-16T12:02:51;2.07;;;0.60;;
20287;SDS011;10303;51.960;8.372;2023-05-16T12:05:20;0.40;;;0.40;;
20287;SDS011;10303;51.960;8.372;2023-05-16T12:07:49;1.20;;;0.50;;
20287;SDS011;10303;51.960;8.372;2023-05-16T12:10:18;2.97;;;1.70;;
20287;SDS011;10303;51.960;8.372;2023-05-16T12:12:45;1.07;;;0.50;;
20287;SDS011;10303;51.960;8.372;2023-05-16T12:15:16;0.60;;;0.40;;
20287;SDS011;10303;51.960;8.372;2023-05-16T12:17:44;2.77;;;0.77;;
20287;SDS011;10303;51.960;8.372;2023-05-16T12:20:12;1.97;;;0.60;;
20287;SDS011;10303;51.960;8.372;2023-05-16T12:22:40;1.00;;;0.40;;
20287;SDS011;10303;51.960;8.372;2023-05-16T12:27:58;0.30;;;0.30;;
20287;SDS011;10303;51.960;8.372;2023-05-16T12:30:27;3.63;;;0.37;;
20287;SDS011;10303;51.960;8.372;2023-05-16T12:32:56;1.60;;;0.70;;
20287;SDS011;10303;51.960;8.372;2023-05-16T12:35:24;0.80;;;0.80;;
20287;SDS011;10303;51.960;8.372;2023-05-16T12:37:54;4.87;;;0.77;;
20287;SDS011;10303;51.960;8.372;2023-05-16T12:40:20;0.50;;;0.40;;
20287;SDS011;10303;51.960;8.372;2023-05-16T12:42:48;2.53;;;0.50;;
20287;SDS011;10303;51.960;8.372;2023-05-16T12:45:18;1.70;;;0.63;;
20287;SDS011;10303;51.960;8.372;2023-05-16T12:47:47;2.17;;;0.30;;
20287;SDS011;10303;51.960;8.372;2023-05-16T12:50:14;2.47;;;0.50;;
20287;SDS011;10303;51.960;8.372;2023-05-16T12:52:51;1.00;;;0.43;;
20287;SDS011;10303;51.960;8.372;2023-05-16T12:55:22;0.60;;;0.50;;
20287;SDS011;10303;51.960;8.372;2023-05-16T12:57:48;1.90;;;0.50;;
20287;SDS011;10303;51.960;8.372;2023-05-16T13:00:16;0.40;;;0.40;;
20287;SDS011;10303;51.960;8.372;2023-05-16T13:02:44;0.67;;;0.40;;
20287;SDS011;10303;51.960;8.372;2023-05-16T13:05:11;1.20;;;0.30;;
20287;SDS011;10303;51.960;8.372;2023-05-16T13:07:38;1.47;;;0.60;;
20287;SDS011;10303;51.960;8.372;2023-05-16T13:10:08;0.77;;;0.63;;
20287;SDS011;10303;51.960;8.372;2023-05-16T13:12:39;1.97;;;0.60;;
20287;SDS011;10303;51.960;8.372;2023-05-16T13:15:06;1.53;;;0.70;;
20287;SDS011;10303;51.960;8.372;2023-05-16T13:17:34;2.57;;;0.50;;
20287;SDS011;10303;51.960;8.372;2023-05-16T13:20:02;0.40;;;0.40;;
20287;SDS011;10303;51.960;8.372;2023-05-16T13:22:37;0.40;;;0.40;;
20287;SDS011;10303;51.960;8.372;2023-05-16T13:25:07;1.10;;;0.67;;
20287;SDS011;10303;51.960;8.372;2023-05-16T13:27:34;0.60;;;0.50;;
20287;SDS011;10303;51.960;8.372;2023-05-16T13:30:01;3.07;;;0.50;;
20287;SDS011;10303;51.960;8.372;2023-05-16T13:32:30;0.60;;;0.50;;
20287;SDS011;10303;51.960;8.372;2023-05-16T13:34:57;1.17;;;0.57;;
20287;SDS011;10303;51.960;8.372;2023-05-16T13:37:22;1.30;;;0.80;;
20287;SDS011;10303;51.960;8.372;2023-05-16T13:39:49;0.40;;;0.40;;
20287;SDS011;10303;51.960;8.372;2023-05-16T13:42:15;2.20;;;0.50;;
20287;SDS011;10303;51.960;8.372;2023-05-16T13:44:41;2.17;;;0.57;;
20287;SDS011;10303;51.960;8.372;2023-05-16T13:47:07;0.80;;;0.70;;
20287;SDS011;10303;51.960;8.372;2023-05-16T13:49:33;0.97;;;0.47;;
20287;SDS011;10303;51.960;8.372;2023-05-16T13:51:59;2.00;;;0.60;;
20287;SDS011;10303;51.960;8.372;2023-05-16T13:54:26;5.63;;;0.60;;
20287;SDS011;10303;51.960;8.372;2023-05-16T13:56:52;3.40;;;0.53;;
20287;SDS011;10303;51.960;8.372;2023-05-16T13:59:18;1.30;;;0.57;;
20287;SDS011;10303;51.960;8.372;2023-05-16T14:01:44;1.43;;;0.73;;
20287;SDS011;10303;51.960;8.372;2023-05-16T14:04:10;0.73;;;0.40;;
20287;SDS011;10303;51.960;8.372;2023-05-16T14:06:36;0.40;;;0.30;;
20287;SDS011;10303;51.960;8.372;2023-05-16T14:09:02;2.50;;;0.80;;
20287;SDS011;10303;51.960;8.372;2023-05-16T14:11:28;1.00;;;0.70;;
20287;SDS011;10303;51.960;8.372;2023-05-16T14:13:55;1.57;;;0.70;;
20287;SDS011;10303;51.960;8.372;2023-05-16T14:16:21;1.20;;;0.47;;
20287;SDS011;10303;51.960;8.372;2023-05-16T14:18:48;0.37;;;0.37;;
20287;SDS011;10303;51.960;8.372;2023-05-16T14:21:14;0.30;;;0.30;;
20287;SDS011;10303;51.960;8.372;2023-05-16T14:23:40;1.57;;;0.60;;
20287;SDS011;10303;51.960;8.372;2023-05-16T14:26:05;1.43;;;0.40;;
20287;SDS011;10303;51.960;8.372;2023-05-16T14:28:31;1.93;;;0.90;;
20287;SDS011;10303;51.960;8.372;2023-05-16T14:30:58;3.50;;;0.60;;
20287;SDS011;10303;51.960;8.372;2023-05-16T14:33:25;2.00;;;0.40;;
20287;SDS011;10303;51.960;8.372;2023-05-16T14:35:51;0.80;;;0.43;;
20287;SDS011;10303;51.960;8.372;2023-05-16T14:38:18;3.50;;;0.63;;
20287;SDS011;10303;51.960;8.372;2023-05-16T14:40:45;1.13;;;0.97;;
20287;SDS011;10303;51.960;8.372;2023-05-16T14:43:11;1.23;;;0.50;;
20287;SDS011;10303;51.960;8.372;2023-05-16T14:45:37;4.57;;;0.73;;
20287;SDS011;10303;51.960;8.372;2023-05-16T14:48:04;1.00;;;0.50;;
20287;SDS011;10303;51.960;8.372;2023-05-16T14:50:31;0.73;;;0.37;;
20287;SDS011;10303;51.960;8.372;2023-05-16T14:52:57;0.50;;;0.30;;
20287;SDS011;10303;51.960;8.372;2023-05-16T14:55:23;1.70;;;0.60;;
20287;SDS011;10303;51.960;8.372;2023-05-16T14:57:49;9.07;;;0.57;;
20287;SDS011;10303;51.960;8.372;2023-05-16T15:00:15;1.50;;;0.30;;
20287;SDS011;10303;51.960;8.372;2023-05-16T15:02:42;1.20;;;0.40;;
20287;SDS011;10303;51.960;8.372;2023-05-16T15:05:08;1.83;;;0.40;;
20287;SDS011;10303;51.960;8.372;2023-05-16T15:07:34;1.17;;;0.50;;
20287;SDS011;10303;51.960;8.372;2023-05-16T15:10:00;2.67;;;0.93;;
20287;SDS011;10303;51.960;8.372;2023-05-16T15:12:26;0.50;;;0.40;;
20287;SDS011;10303;51.960;8.372;2023-05-16T15:14:52;1.00;;;0.30;;
20287;SDS011;10303;51.960;8.372;2023-05-16T15:17:18;0.90;;;0.37;;
20287;SDS011;10303;51.960;8.372;2023-05-16T15:19:44;1.80;;;0.70;;
20287;SDS011;10303;51.960;8.372;2023-05-16T15:22:12;1.23;;;0.30;;
20287;SDS011;10303;51.960;8.372;2023-05-16T15:24:37;2.00;;;0.40;;
20287;SDS011;10303;51.960;8.372;2023-05-16T15:27:03;1.30;;;0.40;;
20287;SDS011;10303;51.960;8.372;2023-05-16T15:29:30;2.20;;;0.87;;
20287;SDS011;10303;51.960;8.372;2023-05-16T15:31:56;2.27;;;0.73;;
20287;SDS011;10303;51.960;8.372;2023-05-16T15:34:22;6.23;;;0.80;;
20287;SDS011;10303;51.960;8.372;2023-05-16T15:36:49;2.57;;;0.83;;
20287;SDS011;10303;51.960;8.372;2023-05-16T15:39:15;1.43;;;0.53;;